Time;durP1;ratioP1;P1;durP2;ratioP2;P2;SDS_P1;SDS_P2;PMS_P1;PMS_P2;Temp;Humidity;BMP_temperature;BMP_pressure;BME280_temperature;BME280_humidity;BME280_pressure;Samples;Min_cycle;Max_cycle;Signal;HPM_P1;HPM_P2
2022/05/20 00:02:23;;;;;;;15.37;13.60;;;;;;;18.03;86.29;101279.91;5031542;28;20214;-82
2022/05/20 00:04:49;;;;;;;15.23;13.77;;;;;;;18.03;86.33;101274.50;5031811;28;20209;-83
2022/05/20 00:07:16;;;;;;;16.07;14.57;;;;;;;18.04;86.18;101284.31;5030825;28;20723;-82
2022/05/20 00:09:44;;;;;;;16.70;15.20;;;;;;;18.04;86.35;101278.06;5034006;28;20237;-82
2022/05/20 00:12:11;;;;;;;16.57;14.97;;;;;;;18.05;86.38;101282.47;5036668;28;20204;-81
2022/05/20 00:14:38;;;;;;;17.83;16.13;;;;;;;18.04;86.28;101281.63;5045540;28;20202;-81
2022/05/20 00:17:05;;;;;;;17.10;15.43;;;;;;;18.04;86.15;101272.66;5037065;28;20212;-81
2022/05/20 00:19:32;;;;;;;16.50;14.90;;;;;;;18.04;86.27;101276.22;5034671;28;20611;-81
2022/05/20 00:21:58;;;;;;;16.67;15.27;;;;;;;18.02;86.30;101267.41;5034682;28;20212;-82
2022/05/20 00:24:25;;;;;;;17.67;16.07;;;;;;;18.00;86.24;101258.59;5034602;28;20847;-81
2022/05/20 00:26:52;;;;;;;18.07;15.67;;;;;;;17.99;86.14;101264.97;5033634;28;20202;-81
2022/05/20 00:29:18;;;;;;;17.47;15.97;;;;;;;17.99;86.13;101256.03;5034260;28;20744;-81
2022/05/20 00:31:45;;;;;;;19.20;17.27;;;;;;;17.97;86.21;101258.00;5034089;28;20233;-81
2022/05/20 00:34:12;;;;;;;20.13;18.13;;;;;;;17.95;85.98;101257.25;5033778;28;20208;-81
2022/05/20 00:36:38;;;;;;;19.97;17.73;;;;;;;17.93;85.85;101265.47;5033533;28;20202;-81
2022/05/20 00:39:05;;;;;;;19.47;17.43;;;;;;;17.90;85.79;101271.16;5033769;28;20232;-82
2022/05/20 00:41:33;;;;;;;20.67;18.57;;;;;;;17.89;85.87;101265.88;5034330;28;20207;-81
2022/05/20 00:44:01;;;;;;;19.43;17.40;;;;;;;17.85;85.69;101259.91;5034277;28;20210;-81
2022/05/20 00:46:29;;;;;;;19.10;17.37;;;;;;;17.82;85.78;101260.16;5033348;28;20220;-84
2022/05/20 00:49:00;;;;;;;19.17;17.47;;;;;;;17.80;85.63;101262.09;5033749;28;20229;-82
2022/05/20 00:51:30;;;;;;;19.53;17.53;;;;;;;17.79;85.75;101265.78;5034216;28;20214;-82
2022/05/20 00:54:00;;;;;;;20.73;18.83;;;;;;;17.76;85.83;101263.34;5033033;28;20209;-82
2022/05/20 00:56:31;;;;;;;21.00;19.07;;;;;;;17.74;85.87;101267.16;5032318;28;20293;-81
2022/05/20 00:59:01;;;;;;;20.53;18.63;;;;;;;17.72;85.77;101270.00;5034719;28;20697;-81
2022/05/20 01:01:28;;;;;;;20.20;18.13;;;;;;;17.69;85.72;101260.31;5035006;28;20208;-81
2022/05/20 01:03:56;;;;;;;20.57;18.63;;;;;;;17.68;85.77;101252.38;5034255;28;20865;-81
2022/05/20 01:06:23;;;;;;;22.07;19.70;;;;;;;17.65;85.79;101263.41;5017350;28;20191;-81
2022/05/20 01:08:49;;;;;;;21.90;19.77;;;;;;;17.64;85.69;101261.69;5019676;28;20231;-81
2022/05/20 01:11:16;;;;;;;21.60;19.43;;;;;;;17.61;85.60;101256.50;5025305;28;20229;-81
2022/05/20 01:13:44;;;;;;;21.30;19.17;;;;;;;17.61;85.61;101259.22;5033178;28;20210;-82
2022/05/20 01:16:12;;;;;;;23.37;21.07;;;;;;;17.57;85.67;101258.59;5034432;28;20216;-81
2022/05/20 01:18:41;;;;;;;22.17;20.07;;;;;;;17.56;85.72;101264.97;5034525;28;20224;-82
2022/05/20 01:21:08;;;;;;;23.60;21.10;;;;;;;17.55;85.60;101262.44;5030508;28;20213;-81
2022/05/20 01:23:37;;;;;;;23.80;21.27;;;;;;;17.52;85.56;101260.84;5028070;28;20227;-81
2022/05/20 01:26:05;;;;;;;22.20;19.90;;;;;;;17.51;85.77;101267.22;5014473;28;20214;-82
2022/05/20 01:28:32;;;;;;;23.37;21.20;;;;;;;17.51;85.62;101282.50;5014109;28;20264;-81
2022/05/20 01:31:01;;;;;;;22.53;20.53;;;;;;;17.48;85.72;101275.53;5013972;28;20212;-81
2022/05/20 01:33:31;;;;;;;23.70;21.33;;;;;;;17.48;85.68;101269.28;5019221;28;20216;-81
2022/05/20 01:35:58;;;;;;;22.67;20.57;;;;;;;17.46;85.76;101264.03;5031817;28;20713;-82
2022/05/20 01:38:25;;;;;;;21.97;19.83;;;;;;;17.44;85.88;101266.00;5012514;28;20214;-81
2022/05/20 01:40:57;;;;;;;23.70;21.30;;;;;;;17.45;86.05;101272.22;5032197;28;20751;-82
2022/05/20 01:43:41;;;;;;;23.17;20.83;;;;;;;17.43;85.86;101271.50;5032622;28;20190;-81
2022/05/20 01:46:19;;;;;;;24.13;21.73;;;;;;;17.42;85.95;101272.47;5033375;28;20213;-83
2022/05/20 01:48:53;;;;;;;24.23;21.63;;;;;;;17.42;86.24;101283.25;5034572;28;20234;-82
2022/05/20 01:51:25;;;;;;;23.97;21.77;;;;;;;17.41;86.15;101271.63;5041586;28;20192;-82
2022/05/20 01:53:56;;;;;;;25.87;23.10;;;;;;;17.42;86.38;101280.56;5033809;28;20567;-82
2022/05/20 01:56:29;;;;;;;25.13;22.63;;;;;;;17.40;86.41;101280.69;5032384;28;20246;-81
2022/05/20 01:59:03;;;;;;;24.83;22.20;;;;;;;17.37;86.48;101278.25;5033639;28;20559;-82
2022/05/20 02:01:39;;;;;;;24.17;21.80;;;;;;;17.34;86.33;101275.81;5032971;28;20201;-81
2022/05/20 02:04:10;;;;;;;23.80;21.50;;;;;;;17.32;86.54;101283.16;5033123;28;20200;-81
2022/05/20 02:06:41;;;;;;;24.00;21.53;;;;;;;17.28;86.18;101282.56;5042328;28;20193;-82
2022/05/20 02:09:12;;;;;;;24.77;22.30;;;;;;;17.23;85.98;101284.75;5032278;28;20651;-82
2022/05/20 02:11:45;;;;;;;23.53;21.13;;;;;;;17.19;85.58;101285.16;5032497;28;20660;-82
2022/05/20 02:14:18;;;;;;;24.87;22.27;;;;;;;17.13;85.36;101286.50;5032404;28;20196;-82
2022/05/20 02:16:50;;;;;;;25.37;22.67;;;;;;;17.07;85.09;101284.28;5048999;28;20570;-82
2022/05/20 02:19:20;;;;;;;24.13;21.73;;;;;;;17.02;85.15;101282.97;5051978;28;20225;-81
2022/05/20 02:21:50;;;;;;;24.33;21.90;;;;;;;16.96;84.88;101282.47;5052064;28;20208;-82
2022/05/20 02:24:20;;;;;;;25.47;21.17;;;;;;;16.92;85.06;101266.69;5052391;28;20204;-82
2022/05/20 02:26:52;;;;;;;25.03;22.40;;;;;;;16.89;84.91;101280.38;5052015;28;20193;-81
2022/05/20 02:29:22;;;;;;;24.87;21.97;;;;;;;16.86;84.66;101284.16;5044645;28;20249;-81
2022/05/20 02:31:54;;;;;;;24.90;22.07;;;;;;;16.82;84.87;101284.53;5031740;28;20210;-83
2022/05/20 02:34:21;;;;;;;28.13;23.40;;;;;;;16.78;84.43;101285.75;5032357;28;20224;-81
2022/05/20 02:36:47;;;;;;;26.53;22.87;;;;;;;16.76;84.71;101282.34;5032126;28;20223;-81
2022/05/20 02:39:16;;;;;;;28.60;21.80;;;;;;;16.72;84.67;101278.16;5024741;28;20239;-81
2022/05/20 02:41:44;;;;;;;28.47;23.50;;;;;;;16.70;84.69;101285.50;5012632;28;20241;-81
2022/05/20 02:44:12;;;;;;;26.73;23.80;;;;;;;16.66;84.88;101274.13;5012617;28;20598;-82
2022/05/20 02:46:39;;;;;;;30.00;23.67;;;;;;;16.63;84.82;101271.69;5027109;28;20208;-82
2022/05/20 02:49:06;;;;;;;26.27;22.70;;;;;;;16.58;84.75;101282.78;5032206;28;20235;-81
2022/05/20 02:51:33;;;;;;;26.27;22.17;;;;;;;16.57;84.97;101289.13;5031762;28;20205;-82
2022/05/20 02:53:59;;;;;;;27.67;21.67;;;;;;;16.52;84.64;101294.00;5031861;28;20675;-82
2022/05/20 02:56:26;;;;;;;27.33;22.87;;;;;;;16.47;84.23;101306.97;5030002;28;20749;-81
2022/05/20 03:04:25;;;;;;;28.27;22.60;;;;;;;16.32;85.01;101308.13;5012099;28;20678;-81
2022/05/20 03:06:54;;;;;;;26.70;23.07;;;;;;;16.29;84.94;101313.75;5020519;28;20577;-81
2022/05/20 03:09:22;;;;;;;29.53;23.70;;;;;;;16.25;84.99;101307.75;5031082;28;20239;-82
2022/05/20 03:11:49;;;;;;;30.97;23.40;;;;;;;16.24;85.17;101310.56;5031397;28;20216;-81
2022/05/20 03:14:19;;;;;;;24.53;21.93;;;;;;;16.21;85.06;101321.53;5030906;28;20208;-81
2022/05/20 03:16:48;;;;;;;27.50;23.13;;;;;;;16.17;85.10;101325.44;5011018;28;20569;-81
2022/05/20 03:19:15;;;;;;;31.13;21.93;;;;;;;16.14;84.91;101315.75;5011419;28;20601;-81
2022/05/20 03:21:42;;;;;;;26.00;22.67;;;;;;;16.09;85.04;101331.41;5011575;28;20746;-81
2022/05/20 03:24:10;;;;;;;29.53;23.23;;;;;;;16.06;84.83;101334.31;5011211;28;20212;-81
2022/05/20 03:26:37;;;;;;;27.33;22.43;;;;;;;16.04;85.11;101338.09;5010957;28;20212;-81
2022/05/20 03:29:05;;;;;;;29.87;22.03;;;;;;;16.01;84.70;101341.00;5030586;28;20222;-81
2022/05/20 03:31:34;;;;;;;25.57;21.73;;;;;;;15.95;84.45;101335.09;5037341;28;20656;-82
2022/05/20 03:34:05;;;;;;;26.63;20.80;;;;;;;15.94;84.40;101336.06;5047062;28;20232;-81
2022/05/20 03:36:32;;;;;;;25.87;22.40;;;;;;;15.90;84.11;101334.63;5030833;28;20230;-81
2022/05/20 03:38:58;;;;;;;25.83;21.03;;;;;;;15.88;83.83;101336.56;5030451;28;20257;-81
2022/05/20 03:41:25;;;;;;;25.60;20.83;;;;;;;15.86;83.69;101343.88;5027141;28;20700;-81
2022/05/20 03:43:52;;;;;;;28.20;20.80;;;;;;;15.86;83.69;101343.00;5029863;28;20203;-81
2022/05/20 03:46:18;;;;;;;24.60;20.67;;;;;;;15.84;83.57;101345.81;5022576;28;20215;-81
2022/05/20 03:48:45;;;;;;;25.93;19.93;;;;;;;15.83;83.44;101348.59;5027458;28;20717;-81
2022/05/20 03:51:14;;;;;;;25.67;21.33;;;;;;;15.82;83.20;101357.63;5026183;28;20210;-81
2022/05/20 03:53:41;;;;;;;23.10;20.60;;;;;;;15.82;83.44;101355.81;5030756;28;20196;-81
2022/05/20 03:56:08;;;;;;;24.80;20.93;;;;;;;15.78;83.15;101354.31;5020737;28;20214;-82
2022/05/20 03:58:36;;;;;;;22.37;20.10;;;;;;;15.78;82.92;101356.13;5015404;28;20223;-81
2022/05/20 04:03:48;;;;;;;25.83;21.20;;;;;;;15.76;82.97;101377.75;5024082;28;20206;-83
2022/05/20 04:06:16;;;;;;;25.27;20.97;;;;;;;15.75;82.93;101368.00;5023169;28;20218;-81
2022/05/20 04:08:43;;;;;;;24.73;21.20;;;;;;;15.75;83.06;101373.34;5018436;28;20301;-81
2022/05/20 04:11:11;;;;;;;25.60;21.33;;;;;;;15.75;83.26;101368.00;5014844;28;20585;-82
2022/05/20 04:13:39;;;;;;;24.57;20.27;;;;;;;15.76;83.01;101374.22;5027608;28;20214;-81
2022/05/20 04:16:06;;;;;;;25.07;21.07;;;;;;;15.75;83.41;101368.00;5022783;28;20204;-83
2022/05/20 04:18:33;;;;;;;26.07;21.47;;;;;;;15.75;83.50;101373.34;5020992;28;20228;-81
2022/05/20 04:20:59;;;;;;;26.27;22.37;;;;;;;15.76;83.23;101387.66;5013532;28;20211;-81
2022/05/20 04:23:27;;;;;;;23.37;20.73;;;;;;;15.76;83.49;101383.13;5023216;28;20207;-80
2022/05/20 04:25:54;;;;;;;23.90;20.63;;;;;;;15.78;83.45;101388.38;5021804;28;20672;-81
2022/05/20 04:28:20;;;;;;;25.33;21.03;;;;;;;15.77;83.39;101387.50;5020320;28;20221;-81
2022/05/20 04:30:47;;;;;;;22.27;19.80;;;;;;;15.78;83.34;101385.69;5018875;28;20211;-81
2022/05/20 04:33:13;;;;;;;26.17;21.27;;;;;;;15.80;83.21;101383.75;5016083;28;20204;-81
2022/05/20 04:35:40;;;;;;;24.20;20.10;;;;;;;15.80;83.16;101389.97;5018675;28;20208;-81
2022/05/20 04:38:07;;;;;;;24.50;19.70;;;;;;;15.82;83.27;101397.91;5018366;28;20210;-82
2022/05/20 04:40:35;;;;;;;26.17;20.93;;;;;;;15.84;83.05;101402.22;5016607;28;20355;-82
2022/05/20 04:48:29;;;;;;;22.60;20.23;;;;;;;15.90;82.76;101398.22;5017509;28;20227;-82
2022/05/20 04:50:56;;;;;;;22.93;18.80;;;;;;;15.90;82.67;101399.09;5022740;28;20204;-81
2022/05/20 04:56:08;;;;;;;21.57;18.53;;;;;;;15.90;82.17;101398.22;5023745;28;20293;-84
2022/05/20 04:58:35;;;;;;;24.33;20.13;;;;;;;15.91;82.51;101395.44;5024009;28;20225;-82
2022/05/20 05:01:02;;;;;;;21.83;18.93;;;;;;;15.93;82.44;101396.19;5021343;28;20236;-83
2022/05/20 05:03:28;;;;;;;21.93;19.27;;;;;;;15.97;82.53;101405.69;5027505;28;20212;-81
2022/05/20 05:05:55;;;;;;;21.53;19.30;;;;;;;16.00;82.40;101403.75;5023818;28;20211;-81
2022/05/20 05:08:21;;;;;;;21.73;19.40;;;;;;;16.02;82.36;101407.19;5029063;28;20210;-81
2022/05/20 05:10:49;;;;;;;22.03;19.73;;;;;;;16.03;82.30;101406.22;5023794;28;20207;-82
2022/05/20 05:13:17;;;;;;;21.73;19.43;;;;;;;16.04;81.97;101405.25;5027828;28;20204;-80
2022/05/20 05:15:44;;;;;;;20.90;18.60;;;;;;;16.05;82.03;101397.09;5026670;28;20219;-79
2022/05/20 05:18:12;;;;;;;20.80;18.60;;;;;;;16.08;81.89;101406.75;5015182;28;20206;-79
2022/05/20 05:20:43;;;;;;;19.63;17.67;;;;;;;16.08;81.90;101399.56;5017077;28;20218;-79
2022/05/20 05:23:10;;;;;;;20.30;17.27;;;;;;;16.10;81.81;101394.94;5020932;28;20203;-80
2022/05/20 05:25:37;;;;;;;19.03;17.00;;;;;;;16.12;81.48;101392.13;5019884;28;20204;-79
2022/05/20 05:28:04;;;;;;;19.60;17.07;;;;;;;16.12;81.33;101395.63;5026312;28;20676;-79
2022/05/20 05:30:33;;;;;;;17.63;15.70;;;;;;;16.13;80.73;101391.97;5019081;28;20226;-79
2022/05/20 05:32:59;;;;;;;15.93;14.43;;;;;;;16.14;80.38;101400.91;5016721;28;20212;-81
2022/05/20 05:35:29;;;;;;;16.13;13.30;;;;;;;16.14;79.90;101393.69;5018320;28;20570;-80
2022/05/20 05:37:56;;;;;;;13.33;12.03;;;;;;;16.17;79.46;101395.31;5022285;28;20206;-79
2022/05/20 05:40:26;;;;;;;15.33;12.57;;;;;;;16.20;78.96;101395.94;5015700;28;20232;-79
2022/05/20 05:42:54;;;;;;;13.63;12.13;;;;;;;16.26;78.20;101400.00;5036082;28;20215;-79
2022/05/20 05:45:23;;;;;;;13.97;12.47;;;;;;;16.34;78.07;101397.56;5055479;28;20215;-79
2022/05/20 05:47:55;;;;;;;13.43;12.10;;;;;;;16.44;77.38;101400.44;5053751;28;20210;-79
2022/05/20 05:50:22;;;;;;;14.90;13.43;;;;;;;16.52;76.95;101396.19;5053798;28;20365;-79
2022/05/20 05:52:55;;;;;;;13.83;11.33;;;;;;;16.63;76.38;101398.09;5053771;28;20210;-80
2022/05/20 05:55:21;;;;;;;15.40;12.50;;;;;;;16.72;76.14;101402.75;5053979;28;20253;-79
2022/05/20 05:57:48;;;;;;;13.80;12.33;;;;;;;16.84;75.52;101411.72;5052981;28;20689;-79
2022/05/20 06:00:16;;;;;;;14.13;11.33;;;;;;;16.93;74.64;101409.16;5045955;28;20222;-79
2022/05/20 06:02:42;;;;;;;14.07;12.67;;;;;;;17.02;74.32;101410.25;5031745;28;20208;-79
2022/05/20 06:05:10;;;;;;;15.70;13.37;;;;;;;17.11;73.16;101411.41;5033499;28;20574;-79
2022/05/20 06:07:37;;;;;;;16.27;13.03;;;;;;;17.18;72.56;101412.63;5044735;28;20230;-79
2022/05/20 06:10:04;;;;;;;17.23;13.50;;;;;;;17.28;72.10;101413.59;5053322;28;20255;-79
2022/05/20 06:12:33;;;;;;;14.43;12.97;;;;;;;17.37;71.79;101406.66;5035089;28;20209;-79
2022/05/20 06:15:03;;;;;;;15.63;13.97;;;;;;;17.44;71.29;101403.31;5042285;28;20215;-80
2022/05/20 06:17:31;;;;;;;14.20;12.87;;;;;;;17.53;70.74;101404.44;5053048;28;20218;-80
2022/05/20 06:19:57;;;;;;;15.70;14.10;;;;;;;17.59;70.03;101404.78;5053817;28;20247;-80
2022/05/20 06:22:25;;;;;;;15.43;13.83;;;;;;;17.65;69.87;101398.94;5051787;28;20210;-79
2022/05/20 06:24:52;;;;;;;15.27;13.93;;;;;;;17.71;69.45;101411.06;5033902;28;20213;-79
2022/05/20 06:27:18;;;;;;;14.97;13.43;;;;;;;17.78;69.12;101411.41;5033656;28;20229;-80
2022/05/20 06:29:47;;;;;;;15.43;13.63;;;;;;;17.85;68.98;101410.78;5034397;28;20238;-79
2022/05/20 06:32:14;;;;;;;15.90;13.97;;;;;;;17.89;68.42;101406.88;5033604;28;20203;-79
2022/05/20 06:40:14;;;;;;;15.23;13.30;;;;;;;18.02;67.88;101398.63;5044216;28;20746;-79
2022/05/20 06:42:42;;;;;;;15.50;13.97;;;;;;;18.08;67.54;101395.44;5050000;28;20206;-79
2022/05/20 06:45:10;;;;;;;17.80;14.33;;;;;;;18.16;67.14;101392.06;5054670;28;20618;-79
2022/05/20 06:47:37;;;;;;;17.00;14.27;;;;;;;18.21;66.88;101384.47;5054752;28;20213;-79
2022/05/20 06:50:05;;;;;;;17.67;14.57;;;;;;;18.28;66.55;101393.72;5056611;28;20689;-79
2022/05/20 06:52:33;;;;;;;15.43;13.97;;;;;;;18.33;66.03;101383.44;5055184;28;20206;-79
2022/05/20 06:55:00;;;;;;;15.43;14.03;;;;;;;18.37;65.61;101390.28;5054670;28;20206;-79
2022/05/20 06:57:26;;;;;;;14.77;13.37;;;;;;;18.42;65.27;101393.47;5053350;28;20579;-79
2022/05/20 06:59:53;;;;;;;15.80;14.03;;;;;;;18.50;65.01;101384.69;5053728;28;20224;-79
2022/05/20 07:02:20;;;;;;;14.67;13.17;;;;;;;18.55;64.48;101383.34;5053291;28;20872;-80
2022/05/20 07:04:47;;;;;;;14.40;13.10;;;;;;;18.59;64.26;101387.53;5053060;28;20210;-79
2022/05/20 07:07:13;;;;;;;14.20;12.80;;;;;;;18.64;64.61;101379.88;5052599;28;20238;-79
2022/05/20 07:09:41;;;;;;;14.87;13.43;;;;;;;18.73;64.20;101380.94;5052284;28;20231;-79
2022/05/20 07:12:09;;;;;;;14.47;12.67;;;;;;;18.82;64.02;101380.13;5052758;28;20210;-79
2022/05/20 07:14:35;;;;;;;14.03;12.73;;;;;;;18.90;63.14;101376.78;5052353;28;20300;-80
2022/05/20 07:17:02;;;;;;;13.90;12.53;;;;;;;18.97;62.78;101368.03;5052510;28;20217;-80
2022/05/20 07:19:29;;;;;;;13.77;12.37;;;;;;;19.08;63.00;101369.78;5052139;28;20223;-79
2022/05/20 07:21:55;;;;;;;14.80;12.70;;;;;;;19.17;62.50;101371.66;5051926;28;20217;-79
2022/05/20 07:24:22;;;;;;;14.23;12.83;;;;;;;19.28;62.58;101368.03;5052790;28;20209;-79
2022/05/20 07:26:50;;;;;;;15.27;12.77;;;;;;;19.39;61.78;101363.38;5051796;28;20218;-79
2022/05/20 07:29:16;;;;;;;13.97;12.47;;;;;;;19.41;60.89;101364.09;5052392;28;20229;-79
2022/05/20 07:31:43;;;;;;;13.37;12.03;;;;;;;19.46;60.67;101362.81;5051108;28;20205;-79
2022/05/20 07:34:09;;;;;;;15.63;12.67;;;;;;;19.51;60.48;101360.59;5052950;28;20215;-79
2022/05/20 07:36:36;;;;;;;13.90;12.50;;;;;;;19.62;60.70;101355.94;5052201;28;20701;-79
2022/05/20 07:39:02;;;;;;;15.17;11.90;;;;;;;19.70;59.55;101353.41;5051979;28;20248;-79
2022/05/20 07:41:32;;;;;;;14.23;11.83;;;;;;;19.79;59.77;101342.75;5036269;28;20221;-79
2022/05/20 07:43:59;;;;;;;13.20;11.90;;;;;;;19.86;59.23;101342.06;5032168;28;20256;-79
2022/05/20 07:46:26;;;;;;;13.87;12.30;;;;;;;19.95;58.71;101348.44;5032112;28;20671;-79
2022/05/20 07:48:52;;;;;;;13.40;12.17;;;;;;;20.04;58.58;101347.63;5031944;28;20240;-79
2022/05/20 07:51:23;;;;;;;13.20;12.00;;;;;;;20.11;58.64;101341.50;5032080;28;20239;-78
2022/05/20 07:53:53;;;;;;;12.33;11.17;;;;;;;20.24;58.93;101343.94;5032302;28;20188;-79
2022/05/20 07:56:23;;;;;;;12.83;11.73;;;;;;;20.40;58.37;101337.97;5032055;28;20261;-79
2022/05/20 07:58:52;;;;;;;13.37;12.17;;;;;;;20.53;57.49;101348.47;5031658;28;20633;-79
2022/05/20 08:01:23;;;;;;;12.95;11.75;;;;;;;20.62;57.07;101336.78;5031874;28;20213;-79
2022/05/20 08:06:39;;;;;;;12.85;11.63;;;;;;;20.77;55.90;101325.38;5030879;28;20305;-79
2022/05/20 08:09:06;;;;;;;14.47;12.20;;;;;;;20.86;56.40;101323.63;5031598;28;20644;-79
2022/05/20 08:11:33;;;;;;;13.40;12.20;;;;;;;20.98;56.24;101318.88;5031645;28;20225;-80
2022/05/20 08:13:59;;;;;;;13.25;11.98;;;;;;;21.05;55.76;101317.28;5031673;28;20209;-79
2022/05/20 08:16:27;;;;;;;11.90;10.80;;;;;;;21.16;55.78;101306.25;5031324;28;21027;-79
2022/05/20 08:18:54;;;;;;;12.63;11.32;;;;;;;21.30;55.97;101308.50;5032763;28;20719;-79
2022/05/20 08:21:20;;;;;;;12.32;11.23;;;;;;;21.47;55.88;101310.41;5031339;28;20256;-79
2022/05/20 08:23:47;;;;;;;11.85;10.80;;;;;;;21.60;54.30;101309.19;5030619;28;20578;-79
2022/05/20 08:26:16;;;;;;;12.10;10.75;;;;;;;21.61;54.57;101305.47;5030961;28;20210;-79
2022/05/20 08:28:43;;;;;;;11.77;10.68;;;;;;;21.64;53.88;101307.88;5030662;28;20226;-79
2022/05/20 08:31:10;;;;;;;11.57;10.45;;;;;;;21.68;53.61;101295.72;5032769;28;20236;-78
2022/05/20 08:33:38;;;;;;;11.52;10.32;;;;;;;21.74;52.54;101300.53;5035043;28;20256;-78
2022/05/20 08:36:05;;;;;;;10.48;9.48;;;;;;;21.78;52.77;101294.66;5034749;28;20213;-79
2022/05/20 08:38:32;;;;;;;11.57;10.57;;;;;;;21.90;52.80;101305.25;5034353;28;20213;-79
2022/05/20 08:41:00;;;;;;;11.35;10.18;;;;;;;21.98;52.34;101292.63;5034804;28;20212;-79
2022/05/20 08:43:30;;;;;;;13.43;10.95;;;;;;;22.08;52.37;101296.16;5035033;28;20205;-79
2022/05/20 08:45:57;;;;;;;11.30;10.20;;;;;;;22.21;52.58;101289.50;5034561;28;20569;-79
2022/05/20 08:48:24;;;;;;;11.48;10.43;;;;;;;22.34;51.65;101279.06;5033754;28;20248;-79
2022/05/20 08:50:54;;;;;;;11.15;9.95;;;;;;;22.42;51.07;101273.69;5033983;28;20700;-79
2022/05/20 08:53:24;;;;;;;10.68;9.65;;;;;;;22.51;51.22;101278.19;5034231;28;20221;-79
2022/05/20 08:55:51;;;;;;;11.65;10.50;;;;;;;22.62;50.60;101277.91;5034119;28;20214;-79
2022/05/20 08:58:20;;;;;;;10.63;9.52;;;;;;;22.68;50.53;101277.28;5033136;28;20210;-79
2022/05/20 09:00:47;;;;;;;10.93;9.82;;;;;;;22.77;50.23;101275.47;5033775;28;20213;-79
2022/05/20 09:03:14;;;;;;;12.00;10.75;;;;;;;22.85;50.14;101283.69;5034786;28;20573;-79
2022/05/20 09:05:42;;;;;;;12.07;9.52;;;;;;;22.95;49.81;101275.41;5034197;28;20213;-79
2022/05/20 09:08:22;;;;;;;11.70;10.32;;;;;;;23.01;49.96;101272.03;5034171;28;20709;-79
2022/05/20 09:10:51;;;;;;;12.35;11.13;;;;;;;23.09;50.20;101281.09;5034995;28;20752;-80
2022/05/20 09:15:43;;;;;;;11.43;10.27;;;;;;;23.15;49.87;101265.97;5034533;28;20208;-79
2022/05/20 09:16:13;;;;;;;11.50;10.40;;;;;;;23.26;50.08;101257.56;5033760;28;20217;-79
2022/05/20 09:18:41;;;;;;;11.73;10.48;;;;;;;23.33;49.14;101258.56;5034275;28;20233;-79
2022/05/20 09:21:15;;;;;;;11.23;9.75;;;;;;;23.38;49.18;101258.09;5034836;28;20668;-79
2022/05/20 09:23:51;;;;;;;13.18;11.75;;;;;;;23.44;49.03;101252.00;5034265;28;20206;-79
2022/05/20 09:26:24;;;;;;;11.82;10.73;;;;;;;23.47;49.19;101246.19;5032418;28;20190;-79
2022/05/20 09:28:54;;;;;;;12.77;11.38;;;;;;;23.56;49.33;101239.81;5014585;28;20235;-79
2022/05/20 09:31:26;;;;;;;12.18;10.73;;;;;;;23.67;48.98;101239.47;5012828;28;20684;-80
2022/05/20 09:33:57;;;;;;;11.38;10.30;;;;;;;23.78;49.08;101233.72;5014352;28;20710;-79
2022/05/20 09:36:38;;;;;;;12.50;11.40;;;;;;;23.91;49.35;101225.06;5013740;28;20203;-79
2022/05/20 09:39:12;;;;;;;10.90;9.98;;;;;;;24.03;49.12;101218.25;5014004;28;20234;-79
2022/05/20 09:41:51;;;;;;;11.48;10.15;;;;;;;24.11;48.77;101207.38;5013416;28;20215;-79
2022/05/20 09:44:20;;;;;;;11.93;10.82;;;;;;;24.18;47.93;101197.47;5053568;28;20195;-79
2022/05/20 09:46:52;;;;;;;10.85;9.85;;;;;;;24.23;48.75;101195.13;5053738;28;20212;-79
2022/05/20 09:49:37;;;;;;;11.05;10.02;;;;;;;24.33;49.11;101188.66;5053834;28;20577;-80
2022/05/20 09:52:17;;;;;;;11.45;10.40;;;;;;;24.42;48.49;101182.16;5052082;28;20323;-80
2022/05/20 09:54:49;;;;;;;10.63;9.73;;;;;;;24.43;48.05;101178.41;5054907;28;20208;-80
2022/05/20 09:57:22;;;;;;;11.10;10.13;;;;;;;24.44;48.99;101166.50;5054444;28;20210;-79
2022/05/20 09:59:55;;;;;;;12.02;10.82;;;;;;;24.45;48.09;101158.16;5044124;28;20838;-79
2022/05/20 10:02:27;;;;;;;11.65;10.57;;;;;;;24.45;48.14;101162.75;5021720;28;20203;-79
2022/05/20 10:05:03;;;;;;;11.20;10.18;;;;;;;24.48;48.07;101156.97;5021281;28;20670;-80
2022/05/20 10:07:49;;;;;;;11.15;10.13;;;;;;;24.58;47.98;101160.31;5016328;28;20651;-79
2022/05/20 10:10:25;;;;;;;10.18;9.25;;;;;;;24.70;48.64;101152.63;5022365;28;20230;-79
2022/05/20 10:12:53;;;;;;;10.52;9.50;;;;;;;24.83;47.15;101148.31;5023469;28;20206;-79
2022/05/20 10:15:25;;;;;;;9.63;8.50;;;;;;;24.87;46.17;101127.88;5028738;28;20206;-79
2022/05/20 10:18:03;;;;;;;8.93;7.97;;;;;;;24.93;45.92;101118.97;5022050;28;20554;-79
2022/05/20 10:20:35;;;;;;;7.93;7.22;;;;;;;25.05;46.48;101118.59;5022843;28;20228;-79
2022/05/20 10:23:10;;;;;;;6.90;6.35;;;;;;;25.21;46.38;101107.59;5022693;28;20779;-79
2022/05/20 10:25:46;;;;;;;7.07;6.10;;;;;;;25.30;46.08;101103.75;5019888;28;20202;-79
2022/05/20 10:34:10;;;;;;;10.93;9.93;;;;;;;25.36;45.26;101094.84;5025690;28;20248;-79
2022/05/20 10:36:50;;;;;;;9.60;8.52;;;;;;;25.36;46.00;101094.84;5019036;28;20202;-79
2022/05/20 10:39:31;;;;;;;7.05;5.30;;;;;;;25.38;45.52;101090.06;5022095;28;20231;-79
2022/05/20 10:42:13;;;;;;;6.78;5.75;;;;;;;25.38;44.76;101097.41;5027129;28;20201;-79
2022/05/20 10:50:53;;;;;;;4.53;4.13;;;;;;;25.52;43.24;101094.72;5049516;28;20274;-79
2022/05/20 10:53:31;;;;;;;5.30;4.45;;;;;;;25.57;42.50;101092.31;5041564;28;20205;-78
2022/05/20 10:56:20;;;;;;;3.92;3.45;;;;;;;25.59;42.21;101106.59;5054124;28;20828;-79
2022/05/20 10:59:16;;;;;;;4.50;4.10;;;;;;;25.68;43.45;101103.81;5053603;28;20225;-78
2022/05/20 11:01:55;;;;;;;2.85;2.28;;;;;;;25.76;42.08;101101.03;5052964;28;20209;-79
2022/05/20 11:04:39;;;;;;;3.03;2.47;;;;;;;25.77;42.11;101097.28;5053488;28;20212;-79
2022/05/20 11:07:34;;;;;;;2.83;2.60;;;;;;;25.84;41.73;101100.94;5050754;28;20209;-80
2022/05/20 11:10:13;;;;;;;3.50;2.47;;;;;;;25.91;41.41;101089.09;5033664;28;20376;-79
2022/05/20 11:12:52;;;;;;;4.60;2.47;;;;;;;25.99;41.37;101076.38;5033695;28;20528;-79
2022/05/20 11:15:31;;;;;;;2.50;2.30;;;;;;;26.01;41.15;101077.03;5033621;28;20194;-79
2022/05/20 11:18:13;;;;;;;2.60;2.28;;;;;;;26.07;41.40;101054.47;5033234;28;20200;-79
2022/05/20 11:20:58;;;;;;;4.60;2.83;;;;;;;26.12;40.64;101047.44;5034121;28;20261;-79
2022/05/20 11:23:49;;;;;;;3.30;3.00;;;;;;;26.15;40.61;101047.06;5033340;28;20547;-80
2022/05/20 11:26:40;;;;;;;5.68;3.05;;;;;;;26.18;40.70;101049.38;5029771;28;20698;-80
2022/05/20 11:29:49;;;;;;;2.92;2.63;;;;;;;26.22;40.98;101036.19;5032119;28;20828;-80
2022/05/20 11:32:28;;;;;;;2.95;2.55;;;;;;;26.31;40.67;101028.81;5033368;28;20226;-80
2022/05/20 11:35:37;;;;;;;2.90;2.33;;;;;;;26.42;40.83;101025.56;5032109;28;20194;-80
2022/05/20 11:38:25;;;;;;;2.83;2.60;;;;;;;26.57;41.24;101019.03;5028888;28;20309;-80
2022/05/20 11:41:04;;;;;;;3.15;2.80;;;;;;;26.63;40.54;101018.28;5034505;28;20201;-80
2022/05/20 11:43:51;;;;;;;3.78;3.15;;;;;;;26.61;40.04;101014.88;5034139;28;20194;-80
2022/05/20 11:46:30;;;;;;;3.65;2.40;;;;;;;26.59;40.33;101007.91;5045063;28;20192;-80
2022/05/20 11:49:16;;;;;;;5.28;3.10;;;;;;;26.61;40.59;100997.66;5048152;28;22166;-80
2022/05/20 11:52:00;;;;;;;4.40;2.75;;;;;;;26.62;40.87;100994.72;5029362;28;20210;-80
2022/05/20 11:54:34;;;;;;;3.05;2.83;;;;;;;26.67;41.19;100983.22;5030605;28;20204;-79
2022/05/20 11:57:07;;;;;;;4.80;3.25;;;;;;;26.71;41.42;100970.84;5029966;28;20187;-80
2022/05/20 11:59:39;;;;;;;4.50;3.40;;;;;;;26.74;41.23;100965.00;5030769;28;20226;-80
2022/05/20 12:02:10;;;;;;;4.28;3.92;;;;;;;26.76;41.04;100953.88;5021682;28;20213;-80
2022/05/20 12:04:40;;;;;;;4.15;3.75;;;;;;;26.75;41.36;100952.16;5018123;28;20195;-80